Ponchatoula, LA (70454)

3:52 PM CST on February 14, 2016 (GMT -0600)
Wildoak Lane | | Change Station
CLOSE
Current Station
Personal Weather Station
Location: Ponchatoula, LA
Elevation: 52 ft
Nearby Weather Stations

Elev 52 ft 30.46 °N, 90.41 °W | Updated 4 minutes ago

Partly Cloudy
Partly Cloudy
66.2 °F
Feels Like 66.2 °F
N
3.7
Wind Variable Wind from ESE

Today
High -- | Low -- °F
--% Chance of Precip.
Yesterday
High -- | Low -- °F
Precip. -- in
Pressure 30.07 in
Visibility 10.0 miles
Clouds Mostly Cloudy 4400 ft
Dew Point 51 °F
Humidity 59%
Rainfall 0.00 in
Snow Depth Not available.
6:43 AM 5:48 PM
Waxing Crescent, 45% visible
METAR KHDC 142135Z AUTO 13011KT 10SM BKN044 18/09 A3007 RMK AO2
Pressure 30.07 in
Visibility 10.0 miles
Clouds Mostly Cloudy 4400 ft
Dew Point 51 °F
Humidity 59%
Rainfall 0.00 in
Snow Depth Not available.
6:43 AM 5:48 PM
Waxing Crescent, 45% visible
METAR KHDC 142135Z AUTO 13011KT 10SM BKN044 18/09 A3007 RMK AO2

10-Day Weather Forecast

Almanac

Astronomy

Feb. 14, 2016 Rise Set
Actual Time
Civil Twilight
Nautical Twilight
Astronomical Twilight
Moon
Length of Visible Light
Length of Day
Tomorrow will be .
, % of the Moon is Illuminated

Today's Extremes

State Highs State Lows

Community

WunderPhotos

Upload Photos

1,892,890 photos uploaded!

WunderBlog® & News

Nearby

Air Quality

  Air Quality AQ Index Pollutant
Not available.

Snow Depth

Station Depth Elevation

Earthquake Activity

City Distance Mag. Time & Date
Minimum magnitude displayed is 2.5.

Coastal Water Temperatures

Place Temperature

Stations

Nearby Weather Stations

Station Location Temp. Windchill Dew Point Humidity Wind Precip. Elev Updated Type
                   

Watches & Warnings

There are currently no watches in effect.